sensor_id;sensor_type;location;lat;lon;timestamp;P1;durP1;ratioP1;P2;durP2;ratioP2
20397;SDS011;10358;49.590;11.030;2023-02-01T00:01:59;8.80;;;5.13;;
20397;SDS011;10358;49.590;11.030;2023-02-01T00:04:25;7.33;;;5.17;;
20397;SDS011;10358;49.590;11.030;2023-02-01T00:06:51;8.83;;;5.33;;
20397;SDS011;10358;49.590;11.030;2023-02-01T00:09:17;6.93;;;5.20;;
20397;SDS011;10358;49.590;11.030;2023-02-01T00:11:42;9.63;;;5.00;;
20397;SDS011;10358;49.590;11.030;2023-02-01T00:14:08;9.83;;;5.17;;
20397;SDS011;10358;49.590;11.030;2023-02-01T00:16:34;9.63;;;5.73;;
20397;SDS011;10358;49.590;11.030;2023-02-01T00:19:04;8.83;;;5.47;;
20397;SDS011;10358;49.590;11.030;2023-02-01T00:21:31;8.43;;;5.87;;
20397;SDS011;10358;49.590;11.030;2023-02-01T00:23:57;8.67;;;5.73;;
20397;SDS011;10358;49.590;11.030;2023-02-01T00:26:34;11.03;;;6.03;;
20397;SDS011;10358;49.590;11.030;2023-02-01T00:29:00;11.77;;;6.43;;
20397;SDS011;10358;49.590;11.030;2023-02-01T00:31:27;9.97;;;5.17;;
20397;SDS011;10358;49.590;11.030;2023-02-01T00:33:53;8.93;;;6.03;;
20397;SDS011;10358;49.590;11.030;2023-02-01T00:36:19;10.57;;;5.40;;
20397;SDS011;10358;49.590;11.030;2023-02-01T00:38:44;11.17;;;5.57;;
20397;SDS011;10358;49.590;11.030;2023-02-01T00:41:12;11.07;;;5.83;;
20397;SDS011;10358;49.590;11.030;2023-02-01T00:43:41;8.37;;;5.47;;
20397;SDS011;10358;49.590;11.030;2023-02-01T00:46:07;10.67;;;5.90;;
20397;SDS011;10358;49.590;11.030;2023-02-01T00:48:33;10.23;;;5.60;;
20397;SDS011;10358;49.590;11.030;2023-02-01T00:51:03;7.53;;;4.87;;
20397;SDS011;10358;49.590;11.030;2023-02-01T00:53:31;10.03;;;5.77;;
20397;SDS011;10358;49.590;11.030;2023-02-01T00:55:57;9.50;;;5.57;;
20397;SDS011;10358;49.590;11.030;2023-02-01T00:58:23;7.50;;;5.20;;
20397;SDS011;10358;49.590;11.030;2023-02-01T01:01:00;9.43;;;5.40;;
20397;SDS011;10358;49.590;11.030;2023-02-01T01:03:31;9.23;;;5.60;;
20397;SDS011;10358;49.590;11.030;2023-02-01T01:05:59;8.37;;;5.50;;
20397;SDS011;10358;49.590;11.030;2023-02-01T01:08:26;9.97;;;5.07;;
20397;SDS011;10358;49.590;11.030;2023-02-01T01:10:52;8.63;;;5.37;;
20397;SDS011;10358;49.590;11.030;2023-02-01T01:13:17;7.47;;;5.20;;
20397;SDS011;10358;49.590;11.030;2023-02-01T01:15:43;9.80;;;4.67;;
20397;SDS011;10358;49.590;11.030;2023-02-01T01:18:08;10.93;;;5.00;;
20397;SDS011;10358;49.590;11.030;2023-02-01T01:20:35;7.27;;;4.63;;
20397;SDS011;10358;49.590;11.030;2023-02-01T01:23:01;8.10;;;4.87;;
20397;SDS011;10358;49.590;11.030;2023-02-01T01:25:28;8.23;;;4.73;;
20397;SDS011;10358;49.590;11.030;2023-02-01T01:27:53;6.90;;;4.80;;
20397;SDS011;10358;49.590;11.030;2023-02-01T01:30:19;7.27;;;4.90;;
20397;SDS011;10358;49.590;11.030;2023-02-01T01:32:45;6.77;;;4.73;;
20397;SDS011;10358;49.590;11.030;2023-02-01T01:35:10;8.50;;;4.77;;
20397;SDS011;10358;49.590;11.030;2023-02-01T01:37:36;8.17;;;4.53;;
20397;SDS011;10358;49.590;11.030;2023-02-01T01:40:03;7.43;;;4.70;;
20397;SDS011;10358;49.590;11.030;2023-02-01T01:42:30;6.63;;;4.40;;
20397;SDS011;10358;49.590;11.030;2023-02-01T01:47:30;9.83;;;4.27;;
20397;SDS011;10358;49.590;11.030;2023-02-01T01:50:00;6.63;;;4.27;;
20397;SDS011;10358;49.590;11.030;2023-02-01T01:52:26;8.53;;;4.80;;
20397;SDS011;10358;49.590;11.030;2023-02-01T01:54:52;7.00;;;4.70;;
20397;SDS011;10358;49.590;11.030;2023-02-01T01:57:20;7.67;;;4.83;;
20397;SDS011;10358;49.590;11.030;2023-02-01T01:59:48;7.23;;;4.67;;
20397;SDS011;10358;49.590;11.030;2023-02-01T02:02:19;8.93;;;5.13;;
20397;SDS011;10358;49.590;11.030;2023-02-01T02:04:45;6.40;;;4.90;;
20397;SDS011;10358;49.590;11.030;2023-02-01T02:07:13;9.43;;;5.20;;
20397;SDS011;10358;49.590;11.030;2023-02-01T02:09:42;8.23;;;5.23;;
20397;SDS011;10358;49.590;11.030;2023-02-01T02:12:08;6.23;;;4.33;;
20397;SDS011;10358;49.590;11.030;2023-02-01T02:14:34;6.30;;;4.40;;
20397;SDS011;10358;49.590;11.030;2023-02-01T02:20:21;7.57;;;4.60;;
20397;SDS011;10358;49.590;11.030;2023-02-01T02:29:05;6.60;;;4.40;;
20397;SDS011;10358;49.590;11.030;2023-02-01T02:32:02;6.23;;;4.47;;
20397;SDS011;10358;49.590;11.030;2023-02-01T02:34:52;7.63;;;4.33;;
20397;SDS011;10358;49.590;11.030;2023-02-01T02:37:42;9.20;;;4.60;;
20397;SDS011;10358;49.590;11.030;2023-02-01T02:40:47;8.13;;;4.80;;
20397;SDS011;10358;49.590;11.030;2023-02-01T02:43:22;7.50;;;5.07;;
20397;SDS011;10358;49.590;11.030;2023-02-01T02:55:01;7.57;;;5.00;;
20397;SDS011;10358;49.590;11.030;2023-02-01T02:57:34;6.87;;;4.50;;
20397;SDS011;10358;49.590;11.030;2023-02-01T03:00:24;9.07;;;4.90;;
20397;SDS011;10358;49.590;11.030;2023-02-01T03:03:13;10.20;;;4.87;;
20397;SDS011;10358;49.590;11.030;2023-02-01T03:05:57;7.43;;;4.90;;
20397;SDS011;10358;49.590;11.030;2023-02-01T03:08:23;7.20;;;4.80;;
20397;SDS011;10358;49.590;11.030;2023-02-01T03:21:31;7.77;;;4.30;;
20397;SDS011;10358;49.590;11.030;2023-02-01T03:24:04;11.50;;;4.37;;
20397;SDS011;10358;49.590;11.030;2023-02-01T03:27:02;5.97;;;3.90;;
20397;SDS011;10358;49.590;11.030;2023-02-01T03:29:46;5.50;;;3.80;;
20397;SDS011;10358;49.590;11.030;2023-02-01T03:32:14;7.07;;;3.90;;
20397;SDS011;10358;49.590;11.030;2023-02-01T03:34:40;6.83;;;4.00;;
20397;SDS011;10358;49.590;11.030;2023-02-01T03:37:06;7.50;;;3.73;;
20397;SDS011;10358;49.590;11.030;2023-02-01T03:39:49;4.90;;;4.00;;
20397;SDS011;10358;49.590;11.030;2023-02-01T03:42:25;7.47;;;4.20;;
20397;SDS011;10358;49.590;11.030;2023-02-01T03:45:01;6.80;;;4.20;;
20397;SDS011;10358;49.590;11.030;2023-02-01T03:47:34;6.03;;;4.30;;
20397;SDS011;10358;49.590;11.030;2023-02-01T03:50:21;5.97;;;4.40;;
20397;SDS011;10358;49.590;11.030;2023-02-01T03:52:54;8.10;;;4.80;;
20397;SDS011;10358;49.590;11.030;2023-02-01T03:55:33;8.83;;;5.03;;
20397;SDS011;10358;49.590;11.030;2023-02-01T03:58:07;7.20;;;4.93;;
20397;SDS011;10358;49.590;11.030;2023-02-01T04:00:37;9.33;;;5.20;;
20397;SDS011;10358;49.590;11.030;2023-02-01T04:03:04;7.30;;;4.73;;
20397;SDS011;10358;49.590;11.030;2023-02-01T04:05:30;10.60;;;5.00;;
20397;SDS011;10358;49.590;11.030;2023-02-01T04:07:56;7.77;;;5.13;;
20397;SDS011;10358;49.590;11.030;2023-02-01T04:10:23;9.43;;;5.70;;
20397;SDS011;10358;49.590;11.030;2023-02-01T04:12:48;11.30;;;6.20;;
20397;SDS011;10358;49.590;11.030;2023-02-01T04:15:14;11.17;;;5.63;;
20397;SDS011;10358;49.590;11.030;2023-02-01T04:17:39;9.80;;;5.50;;
20397;SDS011;10358;49.590;11.030;2023-02-01T04:20:05;12.17;;;6.60;;
20397;SDS011;10358;49.590;11.030;2023-02-01T04:22:31;9.93;;;6.10;;
20397;SDS011;10358;49.590;11.030;2023-02-01T04:24:57;10.87;;;6.40;;
20397;SDS011;10358;49.590;11.030;2023-02-01T04:27:22;11.63;;;6.43;;
20397;SDS011;10358;49.590;11.030;2023-02-01T04:29:48;11.20;;;6.37;;
20397;SDS011;10358;49.590;11.030;2023-02-01T04:32:17;10.27;;;6.03;;
20397;SDS011;10358;49.590;11.030;2023-02-01T04:34:44;9.40;;;6.00;;
20397;SDS011;10358;49.590;11.030;2023-02-01T04:37:10;8.10;;;5.03;;
20397;SDS011;10358;49.590;11.030;2023-02-01T04:39:35;12.40;;;5.47;;
20397;SDS011;10358;49.590;11.030;2023-02-01T04:42:01;8.40;;;5.77;;
20397;SDS011;10358;49.590;11.030;2023-02-01T04:44:26;12.53;;;6.13;;
20397;SDS011;10358;49.590;11.030;2023-02-01T04:46:52;8.30;;;5.40;;
20397;SDS011;10358;49.590;11.030;2023-02-01T04:49:17;8.17;;;5.63;;
20397;SDS011;10358;49.590;11.030;2023-02-01T04:51:43;10.20;;;6.03;;
20397;SDS011;10358;49.590;11.030;2023-02-01T04:54:09;8.33;;;5.83;;
20397;SDS011;10358;49.590;11.030;2023-02-01T04:56:36;8.23;;;5.73;;
20397;SDS011;10358;49.590;11.030;2023-02-01T04:59:02;8.30;;;5.53;;
20397;SDS011;10358;49.590;11.030;2023-02-01T05:01:29;9.40;;;5.67;;
20397;SDS011;10358;49.590;11.030;2023-02-01T05:03:55;7.70;;;5.93;;
20397;SDS011;10358;49.590;11.030;2023-02-01T05:06:20;10.23;;;6.20;;
20397;SDS011;10358;49.590;11.030;2023-02-01T05:08:46;11.60;;;6.40;;
20397;SDS011;10358;49.590;11.030;2023-02-01T05:11:12;8.43;;;5.30;;
20397;SDS011;10358;49.590;11.030;2023-02-01T05:13:56;7.87;;;6.03;;
20397;SDS011;10358;49.590;11.030;2023-02-01T05:16:22;8.07;;;6.07;;
20397;SDS011;10358;49.590;11.030;2023-02-01T05:18:48;9.70;;;5.47;;
20397;SDS011;10358;49.590;11.030;2023-02-01T05:21:14;7.87;;;5.53;;
20397;SDS011;10358;49.590;11.030;2023-02-01T05:23:39;7.47;;;5.67;;
20397;SDS011;10358;49.590;11.030;2023-02-01T05:26:23;10.87;;;4.83;;
20397;SDS011;10358;49.590;11.030;2023-02-01T05:28:49;9.10;;;5.10;;
20397;SDS011;10358;49.590;11.030;2023-02-01T05:31:15;9.20;;;4.30;;
20397;SDS011;10358;49.590;11.030;2023-02-01T05:33:41;9.13;;;4.20;;
20397;SDS011;10358;49.590;11.030;2023-02-01T05:36:07;9.63;;;4.43;;
20397;SDS011;10358;49.590;11.030;2023-02-01T05:38:32;7.83;;;3.83;;
20397;SDS011;10358;49.590;11.030;2023-02-01T05:40:58;11.00;;;3.70;;
20397;SDS011;10358;49.590;11.030;2023-02-01T05:43:23;8.37;;;3.20;;
20397;SDS011;10358;49.590;11.030;2023-02-01T05:45:51;11.47;;;3.87;;
20397;SDS011;10358;49.590;11.030;2023-02-01T05:48:17;5.50;;;2.70;;
20397;SDS011;10358;49.590;11.030;2023-02-01T05:50:42;9.87;;;2.63;;
20397;SDS011;10358;49.590;11.030;2023-02-01T05:53:08;11.17;;;3.07;;
20397;SDS011;10358;49.590;11.030;2023-02-01T05:55:34;8.80;;;3.00;;
20397;SDS011;10358;49.590;11.030;2023-02-01T05:58:00;11.70;;;2.67;;
20397;SDS011;10358;49.590;11.030;2023-02-01T06:00:26;12.13;;;2.97;;
20397;SDS011;10358;49.590;11.030;2023-02-01T06:02:51;6.93;;;2.30;;
20397;SDS011;10358;49.590;11.030;2023-02-01T06:05:17;9.27;;;2.40;;
20397;SDS011;10358;49.590;11.030;2023-02-01T06:07:43;7.40;;;2.47;;
20397;SDS011;10358;49.590;11.030;2023-02-01T06:10:08;7.60;;;2.57;;
20397;SDS011;10358;49.590;11.030;2023-02-01T06:12:34;6.97;;;2.53;;
20397;SDS011;10358;49.590;11.030;2023-02-01T06:15:00;6.57;;;2.43;;
20397;SDS011;10358;49.590;11.030;2023-02-01T06:17:26;8.67;;;2.47;;
20397;SDS011;10358;49.590;11.030;2023-02-01T06:19:51;6.77;;;2.37;;
20397;SDS011;10358;49.590;11.030;2023-02-01T06:22:17;7.37;;;2.33;;
20397;SDS011;10358;49.590;11.030;2023-02-01T06:24:43;5.07;;;2.33;;
20397;SDS011;10358;49.590;11.030;2023-02-01T06:27:08;5.47;;;2.27;;
20397;SDS011;10358;49.590;11.030;2023-02-01T06:29:34;4.00;;;2.30;;
20397;SDS011;10358;49.590;11.030;2023-02-01T06:32:00;7.50;;;2.67;;
20397;SDS011;10358;49.590;11.030;2023-02-01T06:34:26;3.80;;;2.07;;
20397;SDS011;10358;49.590;11.030;2023-02-01T06:36:51;3.43;;;1.80;;
20397;SDS011;10358;49.590;11.030;2023-02-01T06:39:17;2.23;;;1.70;;
20397;SDS011;10358;49.590;11.030;2023-02-01T06:41:45;3.13;;;1.80;;
20397;SDS011;10358;49.590;11.030;2023-02-01T06:44:12;1.80;;;1.43;;
20397;SDS011;10358;49.590;11.030;2023-02-01T06:46:37;3.27;;;1.93;;
20397;SDS011;10358;49.590;11.030;2023-02-01T06:49:03;2.20;;;1.50;;
20397;SDS011;10358;49.590;11.030;2023-02-01T06:51:28;3.27;;;1.57;;
20397;SDS011;10358;49.590;11.030;2023-02-01T06:53:54;3.07;;;1.50;;
20397;SDS011;10358;49.590;11.030;2023-02-01T06:56:21;2.13;;;1.57;;
20397;SDS011;10358;49.590;11.030;2023-02-01T06:58:47;2.80;;;1.60;;
20397;SDS011;10358;49.590;11.030;2023-02-01T07:01:12;2.57;;;1.50;;
20397;SDS011;10358;49.590;11.030;2023-02-01T07:03:38;2.30;;;1.67;;
20397;SDS011;10358;49.590;11.030;2023-02-01T07:06:04;3.07;;;1.70;;
20397;SDS011;10358;49.590;11.030;2023-02-01T07:08:32;3.03;;;1.70;;
20397;SDS011;10358;49.590;11.030;2023-02-01T07:11:06;3.63;;;1.93;;
20397;SDS011;10358;49.590;11.030;2023-02-01T07:13:35;4.77;;;2.50;;
20397;SDS011;10358;49.590;11.030;2023-02-01T07:16:02;3.37;;;2.40;;
20397;SDS011;10358;49.590;11.030;2023-02-01T07:18:30;3.33;;;2.30;;
20397;SDS011;10358;49.590;11.030;2023-02-01T07:20:56;6.00;;;2.60;;
20397;SDS011;10358;49.590;11.030;2023-02-01T07:23:22;8.47;;;2.73;;
20397;SDS011;10358;49.590;11.030;2023-02-01T07:25:48;5.53;;;2.57;;
20397;SDS011;10358;49.590;11.030;2023-02-01T07:28:17;3.87;;;2.73;;
20397;SDS011;10358;49.590;11.030;2023-02-01T07:30:43;4.30;;;2.60;;
20397;SDS011;10358;49.590;11.030;2023-02-01T07:33:08;9.17;;;2.87;;
20397;SDS011;10358;49.590;11.030;2023-02-01T07:35:34;4.33;;;2.77;;
20397;SDS011;10358;49.590;11.030;2023-02-01T07:37:59;9.60;;;3.03;;
20397;SDS011;10358;49.590;11.030;2023-02-01T07:42:58;5.60;;;3.00;;
20397;SDS011;10358;49.590;11.030;2023-02-01T07:45:24;5.53;;;3.10;;
20397;SDS011;10358;49.590;11.030;2023-02-01T07:47:51;6.80;;;2.87;;
20397;SDS011;10358;49.590;11.030;2023-02-01T07:50:18;6.43;;;3.10;;
20397;SDS011;10358;49.590;11.030;2023-02-01T07:52:43;7.63;;;3.20;;
20397;SDS011;10358;49.590;11.030;2023-02-01T07:55:09;7.90;;;3.10;;
20397;SDS011;10358;49.590;11.030;2023-02-01T07:57:34;9.57;;;2.97;;
20397;SDS011;10358;49.590;11.030;2023-02-01T08:00:00;7.17;;;3.10;;
20397;SDS011;10358;49.590;11.030;2023-02-01T08:02:44;9.07;;;2.63;;
20397;SDS011;10358;49.590;11.030;2023-02-01T08:05:10;7.47;;;3.07;;
20397;SDS011;10358;49.590;11.030;2023-02-01T08:07:35;7.53;;;2.70;;
20397;SDS011;10358;49.590;11.030;2023-02-01T08:10:01;6.40;;;2.50;;
20397;SDS011;10358;49.590;11.030;2023-02-01T08:12:27;5.57;;;2.60;;
20397;SDS011;10358;49.590;11.030;2023-02-01T08:14:52;7.07;;;2.97;;
20397;SDS011;10358;49.590;11.030;2023-02-01T08:17:18;7.07;;;3.33;;
20397;SDS011;10358;49.590;11.030;2023-02-01T08:19:44;6.37;;;3.00;;
20397;SDS011;10358;49.590;11.030;2023-02-01T08:22:10;7.43;;;2.97;;
20397;SDS011;10358;49.590;11.030;2023-02-01T08:24:36;5.60;;;2.80;;
20397;SDS011;10358;49.590;11.030;2023-02-01T08:27:04;5.23;;;2.53;;
20397;SDS011;10358;49.590;11.030;2023-02-01T08:29:30;7.30;;;2.43;;
20397;SDS011;10358;49.590;11.030;2023-02-01T08:31:55;4.50;;;2.40;;
20397;SDS011;10358;49.590;11.030;2023-02-01T08:34:21;7.90;;;2.60;;
20397;SDS011;10358;49.590;11.030;2023-02-01T08:36:47;6.67;;;2.50;;
20397;SDS011;10358;49.590;11.030;2023-02-01T08:39:13;5.90;;;2.40;;
20397;SDS011;10358;49.590;11.030;2023-02-01T08:41:39;10.47;;;2.50;;
20397;SDS011;10358;49.590;11.030;2023-02-01T08:44:07;7.30;;;2.40;;
20397;SDS011;10358;49.590;11.030;2023-02-01T08:46:32;6.10;;;2.20;;
20397;SDS011;10358;49.590;11.030;2023-02-01T08:48:58;7.87;;;2.17;;
20397;SDS011;10358;49.590;11.030;2023-02-01T08:51:24;5.97;;;2.13;;
20397;SDS011;10358;49.590;11.030;2023-02-01T08:53:49;7.33;;;2.40;;
20397;SDS011;10358;49.590;11.030;2023-02-01T08:56:16;7.77;;;1.93;;
20397;SDS011;10358;49.590;11.030;2023-02-01T08:58:42;11.40;;;2.33;;
20397;SDS011;10358;49.590;11.030;2023-02-01T09:01:09;7.87;;;2.50;;
20397;SDS011;10358;49.590;11.030;2023-02-01T09:03:37;5.10;;;2.10;;
20397;SDS011;10358;49.590;11.030;2023-02-01T09:06:04;7.30;;;2.63;;
20397;SDS011;10358;49.590;11.030;2023-02-01T09:08:31;8.17;;;2.47;;
20397;SDS011;10358;49.590;11.030;2023-02-01T09:11:00;6.47;;;2.23;;
20397;SDS011;10358;49.590;11.030;2023-02-01T09:13:27;10.43;;;2.67;;
20397;SDS011;10358;49.590;11.030;2023-02-01T09:15:53;12.57;;;2.50;;
20397;SDS011;10358;49.590;11.030;2023-02-01T09:18:19;7.13;;;2.60;;
20397;SDS011;10358;49.590;11.030;2023-02-01T09:20:45;3.43;;;2.00;;
20397;SDS011;10358;49.590;11.030;2023-02-01T09:23:11;5.13;;;2.23;;
20397;SDS011;10358;49.590;11.030;2023-02-01T09:25:37;6.37;;;2.50;;
20397;SDS011;10358;49.590;11.030;2023-02-01T09:28:03;8.20;;;2.50;;
20397;SDS011;10358;49.590;11.030;2023-02-01T09:30:30;10.47;;;3.13;;
20397;SDS011;10358;49.590;11.030;2023-02-01T09:32:58;8.50;;;3.10;;
20397;SDS011;10358;49.590;11.030;2023-02-01T09:35:24;8.50;;;2.60;;
20397;SDS011;10358;49.590;11.030;2023-02-01T09:37:49;10.57;;;2.63;;
20397;SDS011;10358;49.590;11.030;2023-02-01T09:40:17;5.87;;;2.40;;
20397;SDS011;10358;49.590;11.030;2023-02-01T09:48:24;10.27;;;2.70;;
20397;SDS011;10358;49.590;11.030;2023-02-01T09:50:55;8.23;;;2.00;;
20397;SDS011;10358;49.590;11.030;2023-02-01T09:53:26;9.40;;;2.13;;
20397;SDS011;10358;49.590;11.030;2023-02-01T09:55:55;7.67;;;2.27;;
20397;SDS011;10358;49.590;11.030;2023-02-01T09:58:33;6.30;;;2.10;;
20397;SDS011;10358;49.590;11.030;2023-02-01T10:01:04;9.50;;;2.60;;
20397;SDS011;10358;49.590;11.030;2023-02-01T10:03:44;8.07;;;2.37;;
20397;SDS011;10358;49.590;11.030;2023-02-01T10:17:28;9.47;;;2.80;;
20397;SDS011;10358;49.590;11.030;2023-02-01T10:25:52;12.87;;;2.97;;
20397;SDS011;10358;49.590;11.030;2023-02-01T10:28:20;10.37;;;2.60;;
20397;SDS011;10358;49.590;11.030;2023-02-01T10:30:48;5.50;;;2.20;;
20397;SDS011;10358;49.590;11.030;2023-02-01T10:38:38;8.57;;;2.53;;
20397;SDS011;10358;49.590;11.030;2023-02-01T10:41:11;16.00;;;3.63;;
20397;SDS011;10358;49.590;11.030;2023-02-01T10:43:39;10.97;;;2.60;;
20397;SDS011;10358;49.590;11.030;2023-02-01T10:46:06;11.20;;;2.70;;
20397;SDS011;10358;49.590;11.030;2023-02-01T10:48:32;7.53;;;2.50;;
20397;SDS011;10358;49.590;11.030;2023-02-01T10:51:03;5.80;;;2.30;;
20397;SDS011;10358;49.590;11.030;2023-02-01T10:53:42;15.60;;;3.17;;
20397;SDS011;10358;49.590;11.030;2023-02-01T10:56:13;14.93;;;3.60;;
20397;SDS011;10358;49.590;11.030;2023-02-01T10:58:43;10.90;;;3.23;;
20397;SDS011;10358;49.590;11.030;2023-02-01T11:01:18;6.87;;;2.90;;
20397;SDS011;10358;49.590;11.030;2023-02-01T11:03:55;7.63;;;2.80;;
20397;SDS011;10358;49.590;11.030;2023-02-01T11:08:53;15.80;;;3.43;;
20397;SDS011;10358;49.590;11.030;2023-02-01T11:11:21;11.03;;;2.93;;
20397;SDS011;10358;49.590;11.030;2023-02-01T11:13:52;13.20;;;3.47;;
20397;SDS011;10358;49.590;11.030;2023-02-01T11:16:20;11.97;;;3.10;;
20397;SDS011;10358;49.590;11.030;2023-02-01T11:18:45;14.67;;;3.30;;
20397;SDS011;10358;49.590;11.030;2023-02-01T11:21:19;14.03;;;2.93;;
20397;SDS011;10358;49.590;11.030;2023-02-01T11:23:46;10.37;;;3.20;;
20397;SDS011;10358;49.590;11.030;2023-02-01T11:26:20;9.67;;;3.20;;
20397;SDS011;10358;49.590;11.030;2023-02-01T11:28:54;12.07;;;3.37;;
20397;SDS011;10358;49.590;11.030;2023-02-01T11:31:23;14.40;;;3.50;;
20397;SDS011;10358;49.590;11.030;2023-02-01T11:33:55;12.47;;;3.40;;
20397;SDS011;10358;49.590;11.030;2023-02-01T11:36:27;12.50;;;3.43;;
20397;SDS011;10358;49.590;11.030;2023-02-01T11:41:44;14.57;;;3.53;;
20397;SDS011;10358;49.590;11.030;2023-02-01T11:44:41;10.87;;;3.13;;
20397;SDS011;10358;49.590;11.030;2023-02-01T11:49:48;12.13;;;2.60;;
20397;SDS011;10358;49.590;11.030;2023-02-01T11:55:00;11.87;;;2.67;;
20397;SDS011;10358;49.590;11.030;2023-02-01T11:58:06;15.17;;;2.77;;
20397;SDS011;10358;49.590;11.030;2023-02-01T12:00:40;9.90;;;2.90;;
20397;SDS011;10358;49.590;11.030;2023-02-01T12:06:08;9.30;;;2.33;;
20397;SDS011;10358;49.590;11.030;2023-02-01T12:11:52;10.67;;;2.60;;
20397;SDS011;10358;49.590;11.030;2023-02-01T12:17:06;10.80;;;2.20;;
20397;SDS011;10358;49.590;11.030;2023-02-01T12:19:42;8.40;;;2.60;;
20397;SDS011;10358;49.590;11.030;2023-02-01T12:28:02;10.90;;;3.27;;
20397;SDS011;10358;49.590;11.030;2023-02-01T12:30:58;10.23;;;2.50;;
20397;SDS011;10358;49.590;11.030;2023-02-01T12:36:13;9.00;;;2.47;;
20397;SDS011;10358;49.590;11.030;2023-02-01T12:49:48;7.13;;;2.40;;
20397;SDS011;10358;49.590;11.030;2023-02-01T12:52:23;12.60;;;2.77;;
20397;SDS011;10358;49.590;11.030;2023-02-01T12:57:53;8.70;;;3.10;;
20397;SDS011;10358;49.590;11.030;2023-02-01T13:00:34;12.50;;;2.70;;
20397;SDS011;10358;49.590;11.030;2023-02-01T13:03:23;11.20;;;2.77;;
20397;SDS011;10358;49.590;11.030;2023-02-01T13:06:05;11.27;;;2.60;;
20397;SDS011;10358;49.590;11.030;2023-02-01T13:08:43;13.07;;;4.00;;
20397;SDS011;10358;49.590;11.030;2023-02-01T13:11:15;11.23;;;2.77;;
20397;SDS011;10358;49.590;11.030;2023-02-01T13:14:01;12.53;;;3.20;;
20397;SDS011;10358;49.590;11.030;2023-02-01T13:16:52;13.90;;;3.10;;
20397;SDS011;10358;49.590;11.030;2023-02-01T13:19:40;10.73;;;3.60;;
20397;SDS011;10358;49.590;11.030;2023-02-01T13:22:12;12.00;;;3.40;;
20397;SDS011;10358;49.590;11.030;2023-02-01T13:24:54;10.10;;;3.13;;
20397;SDS011;10358;49.590;11.030;2023-02-01T13:27:26;15.93;;;3.37;;
20397;SDS011;10358;49.590;11.030;2023-02-01T13:29:59;14.27;;;3.30;;
20397;SDS011;10358;49.590;11.030;2023-02-01T13:35:32;13.93;;;3.63;;
20397;SDS011;10358;49.590;11.030;2023-02-01T13:41:11;15.63;;;3.20;;
20397;SDS011;10358;49.590;11.030;2023-02-01T13:43:43;12.10;;;2.83;;
20397;SDS011;10358;49.590;11.030;2023-02-01T13:46:13;12.57;;;3.23;;
20397;SDS011;10358;49.590;11.030;2023-02-01T13:48:52;10.07;;;2.70;;
20397;SDS011;10358;49.590;11.030;2023-02-01T13:51:42;12.30;;;3.30;;
20397;SDS011;10358;49.590;11.030;2023-02-01T13:56:55;13.33;;;2.97;;
20397;SDS011;10358;49.590;11.030;2023-02-01T14:02:35;12.20;;;2.63;;
20397;SDS011;10358;49.590;11.030;2023-02-01T14:13:13;12.20;;;2.50;;
20397;SDS011;10358;49.590;11.030;2023-02-01T14:23:55;13.87;;;2.93;;
20397;SDS011;10358;49.590;11.030;2023-02-01T14:31:31;7.77;;;1.97;;
20397;SDS011;10358;49.590;11.030;2023-02-01T14:34:11;14.40;;;2.57;;
20397;SDS011;10358;49.590;11.030;2023-02-01T14:36:42;10.30;;;2.30;;
20397;SDS011;10358;49.590;11.030;2023-02-01T14:39:19;12.33;;;2.20;;
20397;SDS011;10358;49.590;11.030;2023-02-01T14:41:48;11.37;;;2.80;;
20397;SDS011;10358;49.590;11.030;2023-02-01T14:44:22;12.63;;;2.50;;
20397;SDS011;10358;49.590;11.030;2023-02-01T14:47:03;15.80;;;2.60;;
20397;SDS011;10358;49.590;11.030;2023-02-01T14:49:42;14.07;;;2.67;;
20397;SDS011;10358;49.590;11.030;2023-02-01T14:52:14;16.70;;;2.57;;
20397;SDS011;10358;49.590;11.030;2023-02-01T14:54:42;12.50;;;2.50;;
20397;SDS011;10358;49.590;11.030;2023-02-01T14:57:16;12.17;;;2.53;;
20397;SDS011;10358;49.590;11.030;2023-02-01T14:59:45;10.87;;;2.60;;
20397;SDS011;10358;49.590;11.030;2023-02-01T15:02:19;14.63;;;2.50;;
20397;SDS011;10358;49.590;11.030;2023-02-01T15:04:50;13.33;;;2.47;;
20397;SDS011;10358;49.590;11.030;2023-02-01T15:07:20;15.10;;;2.23;;
20397;SDS011;10358;49.590;11.030;2023-02-01T15:09:46;11.07;;;2.47;;
20397;SDS011;10358;49.590;11.030;2023-02-01T15:12:23;13.23;;;2.40;;
20397;SDS011;10358;49.590;11.030;2023-02-01T15:17:36;8.47;;;2.27;;
20397;SDS011;10358;49.590;11.030;2023-02-01T15:20:15;17.27;;;3.13;;
20397;SDS011;10358;49.590;11.030;2023-02-01T15:22:41;14.83;;;2.63;;
20397;SDS011;10358;49.590;11.030;2023-02-01T15:28:05;13.30;;;2.73;;
20397;SDS011;10358;49.590;11.030;2023-02-01T15:30:37;12.90;;;2.63;;
20397;SDS011;10358;49.590;11.030;2023-02-01T15:33:08;12.90;;;2.80;;
20397;SDS011;10358;49.590;11.030;2023-02-01T15:35:49;12.27;;;2.60;;
20397;SDS011;10358;49.590;11.030;2023-02-01T15:40:57;15.63;;;2.93;;
20397;SDS011;10358;49.590;11.030;2023-02-01T15:43:24;13.03;;;2.43;;
20397;SDS011;10358;49.590;11.030;2023-02-01T15:45:50;14.27;;;2.80;;
20397;SDS011;10358;49.590;11.030;2023-02-01T15:48:20;10.37;;;2.30;;
20397;SDS011;10358;49.590;11.030;2023-02-01T15:50:48;10.73;;;2.60;;
20397;SDS011;10358;49.590;11.030;2023-02-01T15:53:17;12.13;;;2.73;;
20397;SDS011;10358;49.590;11.030;2023-02-01T15:55:46;11.17;;;2.63;;
20397;SDS011;10358;49.590;11.030;2023-02-01T15:58:21;9.00;;;2.40;;
20397;SDS011;10358;49.590;11.030;2023-02-01T16:00:55;12.00;;;2.53;;
20397;SDS011;10358;49.590;11.030;2023-02-01T16:03:34;10.43;;;2.17;;
20397;SDS011;10358;49.590;11.030;2023-02-01T16:06:07;8.73;;;2.03;;
20397;SDS011;10358;49.590;11.030;2023-02-01T16:08:36;15.27;;;2.73;;
20397;SDS011;10358;49.590;11.030;2023-02-01T16:13:33;12.57;;;2.80;;
20397;SDS011;10358;49.590;11.030;2023-02-01T16:15:59;10.63;;;2.33;;
20397;SDS011;10358;49.590;11.030;2023-02-01T16:18:25;13.80;;;3.13;;
20397;SDS011;10358;49.590;11.030;2023-02-01T16:20:50;13.10;;;2.73;;
20397;SDS011;10358;49.590;11.030;2023-02-01T16:23:16;12.93;;;2.53;;
20397;SDS011;10358;49.590;11.030;2023-02-01T16:25:41;13.83;;;2.77;;
20397;SDS011;10358;49.590;11.030;2023-02-01T16:28:07;12.90;;;2.47;;
20397;SDS011;10358;49.590;11.030;2023-02-01T16:30:33;8.13;;;2.40;;
20397;SDS011;10358;49.590;11.030;2023-02-01T16:33:00;10.13;;;2.53;;
20397;SDS011;10358;49.590;11.030;2023-02-01T16:35:36;11.17;;;2.50;;
20397;SDS011;10358;49.590;11.030;2023-02-01T16:38:03;15.03;;;2.93;;
20397;SDS011;10358;49.590;11.030;2023-02-01T16:40:39;14.57;;;2.97;;
20397;SDS011;10358;49.590;11.030;2023-02-01T16:43:13;11.40;;;2.50;;
20397;SDS011;10358;49.590;11.030;2023-02-01T16:45:44;10.70;;;2.10;;
20397;SDS011;10358;49.590;11.030;2023-02-01T16:50:52;9.07;;;2.23;;
20397;SDS011;10358;49.590;11.030;2023-02-01T16:53:19;12.07;;;1.93;;
20397;SDS011;10358;49.590;11.030;2023-02-01T16:55:46;9.13;;;2.17;;
20397;SDS011;10358;49.590;11.030;2023-02-01T16:58:13;14.43;;;2.77;;
20397;SDS011;10358;49.590;11.030;2023-02-01T17:00:38;19.57;;;4.37;;
20397;SDS011;10358;49.590;11.030;2023-02-01T17:03:04;18.97;;;5.23;;
20397;SDS011;10358;49.590;11.030;2023-02-01T17:05:31;10.77;;;2.77;;
20397;SDS011;10358;49.590;11.030;2023-02-01T17:07:58;18.40;;;2.77;;
20397;SDS011;10358;49.590;11.030;2023-02-01T17:10:29;16.93;;;3.53;;
20397;SDS011;10358;49.590;11.030;2023-02-01T17:12:54;14.43;;;2.77;;
20397;SDS011;10358;49.590;11.030;2023-02-01T17:15:22;14.97;;;2.57;;